Terminal Aerodrome Forecast
Issued by NWS

Current Version | Previous Version | Graphics & Text | Print | Product List | Glossary On
Versions: 1 2 3 4 5 6 7 8 9 10 11 12 13 14 15 16 17 18 19 20 21 22 23 24 25
000
FTUS41 KRLX 142100 AAA
TAFCKB
TAF AMD
KCKB 142156Z 1422/1518 23006KT 3SM BR OVC006
     FM150200 00000KT P6SM OVC015
     FM150800 00000KT 6SM BR OVC010
     FM151700 00000KT P6SM SCT020=

USA.gov is the U.S. government's official web portal to all federal, state and local government web resources and services.